createdAt,value
2019-04-11T00:01:47.791Z,31.80
2019-04-11T00:04:15.700Z,30.73
2019-04-11T00:06:46.434Z,29.33
2019-04-11T00:09:18.657Z,28.67
2019-04-11T00:11:50.361Z,24.43
2019-04-11T00:14:22.098Z,28.63
2019-04-11T00:16:53.339Z,25.27
2019-04-11T00:19:24.260Z,32.57
2019-04-11T00:21:55.241Z,30.10
2019-04-11T00:24:27.031Z,27.13
2019-04-11T00:26:57.846Z,35.83
2019-04-11T00:29:28.565Z,29.37
2019-04-11T00:31:59.299Z,28.40
2019-04-11T00:34:30.959Z,29.77
2019-04-11T00:37:02.869Z,27.97
2019-04-11T00:39:33.819Z,29.00
2019-04-11T00:42:04.536Z,28.63
2019-04-11T00:44:35.291Z,25.93
2019-04-11T00:47:06.943Z,28.97
2019-04-11T00:49:38.755Z,27.90
2019-04-11T00:52:09.561Z,27.37
2019-04-11T00:54:40.705Z,31.83
2019-04-11T00:57:12.704Z,31.60
2019-04-11T00:59:44.459Z,25.67
2019-04-11T01:02:15.633Z,28.17
2019-04-11T01:04:46.406Z,28.07
2019-04-11T01:07:17.149Z,28.23
2019-04-11T01:09:48.597Z,30.33
2019-04-11T01:12:20.548Z,29.83
2019-04-11T01:14:51.531Z,26.90
2019-04-11T01:17:23.254Z,26.53
2019-04-11T01:19:55.191Z,30.13
2019-04-11T01:22:26.524Z,30.17
2019-04-11T01:24:57.848Z,28.70
2019-04-11T01:27:28.523Z,30.20
2019-04-11T01:29:59.927Z,27.97
2019-04-11T01:32:30.662Z,34.60
2019-04-11T01:35:01.418Z,30.60
2019-04-11T01:37:32.106Z,27.07
2019-04-11T01:40:02.942Z,27.37
2019-04-11T01:42:33.670Z,27.03
2019-04-11T01:45:05.371Z,32.03
2019-04-11T01:48:01.546Z,25.73
2019-04-11T01:50:34.939Z,31.00
2019-04-11T01:53:06.726Z,26.17
2019-04-11T01:55:38.689Z,30.17
2019-04-11T01:58:10.744Z,26.83
2019-04-11T02:01:00.832Z,27.90
2019-04-11T02:03:39.342Z,27.33
2019-04-11T02:06:10.139Z,30.07
2019-04-11T02:08:41.727Z,29.67
2019-04-11T02:11:13.004Z,27.60
2019-04-11T02:13:43.866Z,32.43
2019-04-11T02:16:14.683Z,27.93
2019-04-11T02:18:45.727Z,28.07
2019-04-11T02:21:17.737Z,26.00
2019-04-11T02:24:03.697Z,28.47
2019-04-11T02:26:35.617Z,27.73
2019-04-11T02:29:06.482Z,29.73
2019-04-11T02:31:38.891Z,25.87
2019-04-11T02:34:11.474Z,26.23
2019-04-11T02:36:42.904Z,28.03
2019-04-11T02:39:17.748Z,28.10
2019-04-11T02:41:46.921Z,23.10
2019-04-11T02:44:52.369Z,23.70
2019-04-11T02:47:00.851Z,28.00
2019-04-11T02:49:24.233Z,25.87
2019-04-11T02:51:56.041Z,27.87
2019-04-11T02:54:28.338Z,26.30
2019-04-11T02:57:00.447Z,27.93
2019-04-11T02:59:31.938Z,25.30
2019-04-11T03:02:04.527Z,26.40
2019-04-11T03:04:35.091Z,25.43
2019-04-11T03:07:06.158Z,27.33
2019-04-11T03:09:39.319Z,30.07
2019-04-11T03:12:11.623Z,26.53
2019-04-11T03:15:02.180Z,29.30
2019-04-11T03:17:20.645Z,29.83
2019-04-11T03:19:59.451Z,29.27
2019-04-11T03:22:20.319Z,28.37
2019-04-11T03:24:51.300Z,25.70
2019-04-11T03:27:26.065Z,25.70
2019-04-11T03:29:55.930Z,26.37
2019-04-11T03:38:01.204Z,26.47
2019-04-11T03:40:25.985Z,25.10
2019-04-11T03:42:51.905Z,27.10
2019-04-11T03:45:34.853Z,25.73
2019-04-11T03:47:59.430Z,27.33
2019-04-11T03:50:18.880Z,26.97
2019-04-11T03:52:49.323Z,23.53
2019-04-11T03:55:21.675Z,25.80
2019-04-11T03:57:54.349Z,27.43
2019-04-11T04:00:31.334Z,24.47
2019-04-11T04:02:59.431Z,24.30
2019-04-11T04:05:33.631Z,24.53
2019-04-11T04:08:04.512Z,28.87
2019-04-11T04:10:37.076Z,25.57
2019-04-11T04:13:14.217Z,27.43
2019-04-11T04:16:07.490Z,27.57
2019-04-11T04:18:51.840Z,27.10
2019-04-11T04:21:43.838Z,23.10
2019-04-11T04:24:34.466Z,28.80
2019-04-11T04:27:05.163Z,24.27
2019-04-11T04:29:37.750Z,22.30
2019-04-11T04:32:08.865Z,28.20
2019-04-11T04:34:40.231Z,28.47
2019-04-11T04:37:14.139Z,23.83
2019-04-11T04:39:45.761Z,26.07
2019-04-11T04:42:26.438Z,23.70
2019-04-11T04:44:50.951Z,26.47
2019-04-11T04:47:30.410Z,26.83
2019-04-11T04:49:54.480Z,26.00
2019-04-11T04:52:25.890Z,26.27
2019-04-11T04:54:59.268Z,27.30
2019-04-11T04:57:31.418Z,24.90
2019-04-11T05:00:04.563Z,22.17
2019-04-11T05:02:35.550Z,26.40
2019-04-11T05:05:09.270Z,25.57
2019-04-11T05:07:42.148Z,22.40
2019-04-11T05:10:13.458Z,23.13
2019-04-11T05:12:45.914Z,25.93
2019-04-11T05:15:16.859Z,20.30
2019-04-11T05:17:49.155Z,21.43
2019-04-11T05:20:20.025Z,21.10
2019-04-11T05:22:51.306Z,24.13
2019-04-11T05:25:22.286Z,24.20
2019-04-11T05:27:54.003Z,19.33
2019-04-11T05:30:25.260Z,20.03
2019-04-11T05:32:56.108Z,22.33
2019-04-11T05:35:26.984Z,20.53
2019-04-11T05:37:57.962Z,21.47
2019-04-11T05:40:30.111Z,20.80
2019-04-11T05:43:01.839Z,20.10
2019-04-11T05:45:33.729Z,18.93
2019-04-11T05:48:07.226Z,21.87
2019-04-11T05:50:44.223Z,19.30
2019-04-11T05:53:12.229Z,18.37
2019-04-11T05:55:46.852Z,19.80
2019-04-11T05:58:17.581Z,19.23
2019-04-11T06:01:14.383Z,18.77
2019-04-11T06:03:45.491Z,19.20
2019-04-11T06:06:36.118Z,17.27
2019-04-11T06:09:10.329Z,16.20
2019-04-11T06:11:54.259Z,17.47
2019-04-11T06:14:49.274Z,15.93
2019-04-11T06:17:21.933Z,14.77
2019-04-11T06:20:12.589Z,18.40
2019-04-11T06:22:49.787Z,14.80
2019-04-11T06:25:42.892Z,14.43
2019-04-11T06:28:20.146Z,14.20
2019-04-11T06:31:16.062Z,17.33
2019-04-11T06:33:51.375Z,18.17
2019-04-11T06:36:41.250Z,13.90
2019-04-11T06:39:37.781Z,18.17
2019-04-11T06:42:24.474Z,12.57
2019-04-11T06:45:13.477Z,16.63
2019-04-11T06:48:02.208Z,16.67
2019-04-11T06:50:44.035Z,14.97
2019-04-11T06:53:18.891Z,13.63
2019-04-11T06:56:08.281Z,16.70
2019-04-11T06:58:43.721Z,19.10
2019-04-11T07:01:18.208Z,15.30
2019-04-11T07:03:53.264Z,15.60
2019-04-11T07:06:29.384Z,14.27
2019-04-11T07:09:14.608Z,14.20
2019-04-11T07:11:48.581Z,15.20
2019-04-11T07:14:26.976Z,15.70
2019-04-11T07:17:16.800Z,14.67
2019-04-11T07:20:16.587Z,13.07
2019-04-11T07:23:05.884Z,16.33
2019-04-11T07:25:51.664Z,13.17
2019-04-11T07:28:41.794Z,12.40
2019-04-11T07:31:31.866Z,14.67
2019-04-11T07:34:31.473Z,15.43
2019-04-11T07:37:18.859Z,16.87
2019-04-11T07:40:24.376Z,15.00
2019-04-11T07:43:22.427Z,13.73
2019-04-11T07:46:25.246Z,15.17
2019-04-11T07:49:03.633Z,17.07
2019-04-11T07:51:58.081Z,16.47
2019-04-11T07:54:30.226Z,13.33
2019-04-11T07:57:26.423Z,13.63
2019-04-11T08:00:08.859Z,12.80
2019-04-11T08:02:57.466Z,15.03
2019-04-11T08:05:46.682Z,12.27
2019-04-11T08:08:30.249Z,11.93
2019-04-11T08:11:09.497Z,14.77
2019-04-11T08:14:06.383Z,16.00
2019-04-11T08:16:55.314Z,12.13
2019-04-11T08:19:43.837Z,13.37
2019-04-11T08:22:39.762Z,14.57
2019-04-11T08:25:29.750Z,11.80
2019-04-11T08:28:04.875Z,15.40
2019-04-11T08:30:49.253Z,10.87
2019-04-11T08:33:20.275Z,15.93
2019-04-11T08:36:19.841Z,12.03
2019-04-11T08:38:50.903Z,12.83
2019-04-11T08:41:39.947Z,9.87
2019-04-11T08:44:15.863Z,9.87
2019-04-11T08:46:51.046Z,8.60
2019-04-11T08:49:33.843Z,9.73
2019-04-11T08:52:10.107Z,15.47
2019-04-11T08:54:58.748Z,8.93
2019-04-11T08:57:42.523Z,9.87
2019-04-11T09:00:34.629Z,15.10
2019-04-11T09:03:27.561Z,8.00
2019-04-11T09:06:04.728Z,8.60
2019-04-11T09:09:00.731Z,8.93
2019-04-11T09:11:49.473Z,8.30
2019-04-11T09:14:38.096Z,10.10
2019-04-11T09:17:28.247Z,10.00
2019-04-11T09:20:16.862Z,9.30
2019-04-11T09:22:53.328Z,9.93
2019-04-11T09:25:42.001Z,9.23
2019-04-11T09:28:31.011Z,13.00
2019-04-11T09:31:21.286Z,9.23
2019-04-11T09:34:11.212Z,8.77
2019-04-11T09:37:06.906Z,12.07
2019-04-11T09:40:03.688Z,10.27
2019-04-11T09:42:59.686Z,9.03
2019-04-11T09:46:05.983Z,10.57
2019-04-11T09:48:53.843Z,13.43
2019-04-11T09:51:40.235Z,7.80
2019-04-11T09:54:28.705Z,9.77
2019-04-11T09:57:22.853Z,11.27
2019-04-11T10:00:26.383Z,13.00
2019-04-11T10:03:08.903Z,11.37
2019-04-11T10:05:54.668Z,10.07
2019-04-11T10:08:43.562Z,13.07
2019-04-11T10:11:32.583Z,10.63
2019-04-11T10:14:13.356Z,9.73
2019-04-11T10:17:01.883Z,10.03
2019-04-11T10:19:38.229Z,10.37
2019-04-11T10:22:20.957Z,12.37
2019-04-11T10:25:10.611Z,13.20
2019-04-11T10:28:03.490Z,9.93
2019-04-11T10:30:51.790Z,12.03
2019-04-11T10:33:44.879Z,11.00
2019-04-11T10:36:40.464Z,9.83
2019-04-11T10:39:33.486Z,13.30
2019-04-11T10:42:08.401Z,9.63
2019-04-11T10:45:16.261Z,9.40
2019-04-11T10:47:49.287Z,9.80
2019-04-11T10:50:51.158Z,8.57
2019-04-11T10:53:24.944Z,10.60
2019-04-11T10:56:22.161Z,12.03
2019-04-11T10:58:55.453Z,10.27
2019-04-11T11:01:44.356Z,9.63
2019-04-11T11:04:34.725Z,8.60
2019-04-11T11:07:10.182Z,10.40
2019-04-11T11:09:54.795Z,13.47
2019-04-11T11:12:43.597Z,9.97
2019-04-11T11:15:27.373Z,11.00
2019-04-11T11:19:01.937Z,12.33
2019-04-11T11:21:11.375Z,9.23
2019-04-11T11:24:00.861Z,9.67
2019-04-11T11:26:36.485Z,12.63
2019-04-11T11:29:32.067Z,13.33
2019-04-11T11:32:16.772Z,11.23
2019-04-11T11:35:05.363Z,10.80
2019-04-11T11:37:45.319Z,11.37
2019-04-11T11:40:50.369Z,14.67
2019-04-11T11:43:23.546Z,11.53
2019-04-11T11:46:32.204Z,11.77
2019-04-11T11:49:32.739Z,12.80
2019-04-11T11:52:09.513Z,12.90
2019-04-11T11:54:48.990Z,15.50
2019-04-11T11:57:47.858Z,11.33
2019-04-11T12:00:23.459Z,12.90
2019-04-11T12:03:17.523Z,12.67
2019-04-11T12:05:53.737Z,17.57
2019-04-11T12:08:37.332Z,10.13
2019-04-11T12:11:11.092Z,10.90
2019-04-11T12:13:57.805Z,11.03
2019-04-11T12:16:48.589Z,13.53
2019-04-11T12:19:26.873Z,13.00
2019-04-11T12:21:58.190Z,11.27
2019-04-11T12:24:34.418Z,8.73
2019-04-11T12:27:31.119Z,12.53
2019-04-11T12:30:13.417Z,9.73
2019-04-11T12:33:07.137Z,9.97
2019-04-11T12:35:58.921Z,13.47
2019-04-11T12:38:57.137Z,11.63
2019-04-11T12:41:35.446Z,10.63
2019-04-11T12:44:40.601Z,10.83
2019-04-11T12:47:28.830Z,9.10
2019-04-11T12:50:30.555Z,10.43
2019-04-11T12:53:09.491Z,9.00
2019-04-11T12:56:17.308Z,8.40
2019-04-11T12:59:07.026Z,8.90
2019-04-11T13:01:55.636Z,11.13
2019-04-11T13:04:45.370Z,14.47
2019-04-11T13:07:35.259Z,11.10
2019-04-11T13:10:45.414Z,7.70
2019-04-11T13:13:53.449Z,11.30
2019-04-11T13:16:26.047Z,10.17
2019-04-11T13:19:15.726Z,10.27
2019-04-11T13:21:53.025Z,10.80
2019-04-11T13:24:57.882Z,12.23
2019-04-11T13:27:32.435Z,11.03
2019-04-11T13:30:21.027Z,11.20
2019-04-11T13:32:54.013Z,9.00
2019-04-11T13:35:42.543Z,8.83
2019-04-11T13:38:25.262Z,12.57
2019-04-11T13:41:21.021Z,10.77
2019-04-11T13:43:57.902Z,10.90
2019-04-11T13:46:47.634Z,8.47
2019-04-11T13:49:42.541Z,8.67
2019-04-11T13:52:32.257Z,8.50
2019-04-11T13:55:11.675Z,8.57
2019-04-11T13:58:01.359Z,9.80
2019-04-11T14:00:46.750Z,15.43
2019-04-11T14:03:48.486Z,10.77
2019-04-11T14:06:39.930Z,12.37
2019-04-11T14:09:39.265Z,11.13
2019-04-11T14:12:16.917Z,10.07
2019-04-11T14:15:09.353Z,11.53
2019-04-11T14:17:52.036Z,7.93
2019-04-11T14:20:30.338Z,9.23
2019-04-11T14:23:24.450Z,9.23
2019-04-11T14:26:32.744Z,8.73
2019-04-11T14:29:31.773Z,9.67
2019-04-11T14:32:23.563Z,8.47
2019-04-11T14:35:11.872Z,7.80
2019-04-11T14:37:46.269Z,9.20
2019-04-11T14:40:42.567Z,8.83
2019-04-11T14:43:24.121Z,8.20
2019-04-11T14:46:22.885Z,9.13
2019-04-11T14:48:59.184Z,7.57
2019-04-11T14:51:54.714Z,8.53
2019-04-11T14:54:34.472Z,8.97
2019-04-11T14:57:24.233Z,8.87
2019-04-11T15:00:08.213Z,10.53
2019-04-11T15:03:07.127Z,8.70
2019-04-11T15:05:45.398Z,8.70
2019-04-11T15:08:20.571Z,9.57
2019-04-11T15:11:25.447Z,8.60
2019-04-11T15:14:00.973Z,10.20
2019-04-11T15:16:49.184Z,8.03
2019-04-11T15:19:19.990Z,9.43
2019-04-11T15:22:08.320Z,8.63
2019-04-11T15:24:39.578Z,9.43
2019-04-11T15:27:28.198Z,9.87
2019-04-11T15:30:00.144Z,9.00
2019-04-11T15:33:05.199Z,10.97
2019-04-11T15:35:35.926Z,8.93
2019-04-11T15:38:37.399Z,11.20
2019-04-11T15:41:08.507Z,10.97
2019-04-11T15:43:58.207Z,10.50
2019-04-11T15:46:30.673Z,8.93
2019-04-11T15:49:30.008Z,9.50
2019-04-11T15:52:06.848Z,13.23
2019-04-11T15:54:50.634Z,11.83
2019-04-11T15:57:35.884Z,9.67
2019-04-11T16:00:30.999Z,11.13
2019-04-11T16:03:18.656Z,15.17
2019-04-11T16:06:17.531Z,9.77
2019-04-11T16:08:53.917Z,12.50
2019-04-11T16:11:52.611Z,8.60
2019-04-11T16:14:29.368Z,12.40
2019-04-11T16:17:17.889Z,10.33
2019-04-11T16:19:50.606Z,11.77
2019-04-11T16:22:39.226Z,10.57
2019-04-11T16:25:12.273Z,8.90
2019-04-11T16:28:07.229Z,10.87
2019-04-11T16:30:42.712Z,9.70
2019-04-11T16:33:23.942Z,9.63
2019-04-11T16:36:03.109Z,8.07
2019-04-11T16:38:40.297Z,12.37
2019-04-11T16:41:28.988Z,8.23
2019-04-11T16:44:02.445Z,10.93
2019-04-11T16:46:54.888Z,9.00
2019-04-11T16:49:23.668Z,9.77
2019-04-11T16:51:55.730Z,8.67
2019-04-11T16:54:26.495Z,7.47
2019-04-11T16:56:57.287Z,10.20
2019-04-11T16:59:28.058Z,10.87
2019-04-11T17:01:58.856Z,11.17
2019-04-11T17:04:29.581Z,9.80
2019-04-11T17:07:07.500Z,10.03
2019-04-11T17:09:42.177Z,11.50
2019-04-11T17:12:12.912Z,9.37
2019-04-11T17:14:43.618Z,10.20
2019-04-11T17:17:15.466Z,8.20
2019-04-11T17:19:46.464Z,8.53
2019-04-11T17:22:18.936Z,8.43
2019-04-11T17:24:49.637Z,10.00
2019-04-11T17:27:20.934Z,8.07
2019-04-11T17:29:54.924Z,9.70
2019-04-11T17:32:25.798Z,8.37
2019-04-11T17:34:57.312Z,13.17
2019-04-11T17:37:28.277Z,10.87
2019-04-11T17:40:00.934Z,13.73
2019-04-11T17:42:31.708Z,13.17
2019-04-11T17:45:02.399Z,8.93
2019-04-11T17:47:33.132Z,9.40
2019-04-11T17:50:04.403Z,11.97
2019-04-11T17:52:35.725Z,10.97
2019-04-11T17:55:06.430Z,11.40
2019-04-11T17:57:37.203Z,10.43
2019-04-11T18:00:10.300Z,10.13
2019-04-11T18:02:42.647Z,11.30
2019-04-11T18:05:16.955Z,11.27
2019-04-11T18:07:47.276Z,11.07
2019-04-11T18:10:18.399Z,9.03
2019-04-11T18:12:49.146Z,10.07
2019-04-11T18:15:19.873Z,15.13
2019-04-11T18:17:50.609Z,10.53
2019-04-11T18:20:40.593Z,12.70
2019-04-11T18:23:11.347Z,11.53
2019-04-11T18:25:42.103Z,9.97
2019-04-11T18:28:12.820Z,10.50
2019-04-11T18:30:44.096Z,9.53
2019-04-11T18:33:14.912Z,12.47
2019-04-11T18:35:45.609Z,10.57
2019-04-11T18:38:16.384Z,13.30
2019-04-11T18:40:47.113Z,13.47
2019-04-11T18:43:17.909Z,11.70
2019-04-11T18:45:48.647Z,13.87
2019-04-11T18:48:19.442Z,11.53
2019-04-11T18:50:50.810Z,9.37
2019-04-11T18:53:22.953Z,11.43
2019-04-11T18:55:53.710Z,17.10
2019-04-11T18:58:24.506Z,14.60
2019-04-11T19:00:55.272Z,11.30
2019-04-11T19:03:35.745Z,9.30
2019-04-11T19:05:58.815Z,15.20
2019-04-11T19:08:29.605Z,9.57
2019-04-11T19:11:00.446Z,10.20
2019-04-11T19:13:31.193Z,10.27
2019-04-11T19:16:01.871Z,11.07
2019-04-11T19:18:32.695Z,10.60
2019-04-11T19:21:03.413Z,13.27
2019-04-11T19:23:36.733Z,10.23
2019-04-11T19:26:07.475Z,8.87
2019-04-11T19:28:38.461Z,10.87
2019-04-11T19:31:09.191Z,7.90
2019-04-11T19:33:41.145Z,9.10
2019-04-11T19:36:13.282Z,9.53
2019-04-11T19:38:44.101Z,9.43
2019-04-11T19:41:16.950Z,12.37
2019-04-11T19:43:49.215Z,10.73
2019-04-11T19:46:20.472Z,10.43
2019-04-11T19:48:55.430Z,8.43
2019-04-11T19:51:24.089Z,12.20
2019-04-11T19:53:54.833Z,9.30
2019-04-11T19:56:43.416Z,9.30
2019-04-11T19:59:14.183Z,9.60
2019-04-11T20:01:44.998Z,9.73
2019-04-11T20:04:15.695Z,12.07
2019-04-11T20:06:46.421Z,8.57
2019-04-11T20:09:17.358Z,9.23
2019-04-11T20:11:48.126Z,13.27
2019-04-11T20:14:18.871Z,8.40
2019-04-11T20:16:51.950Z,8.90
2019-04-11T20:19:21.993Z,12.07
2019-04-11T20:21:52.830Z,10.07
2019-04-11T20:24:23.619Z,8.57
2019-04-11T20:26:54.411Z,8.47
2019-04-11T20:29:25.139Z,10.43
2019-04-11T20:31:55.928Z,10.50
2019-04-11T20:34:27.755Z,9.57
2019-04-11T20:36:58.686Z,9.53
2019-04-11T20:39:29.423Z,10.60
2019-04-11T20:42:00.137Z,9.27
2019-04-11T20:44:30.855Z,11.43
2019-04-11T20:47:01.601Z,13.53
2019-04-11T20:49:33.938Z,9.10
2019-04-11T20:52:04.652Z,9.20
2019-04-11T20:54:35.981Z,11.40
2019-04-11T20:57:11.869Z,12.00
2019-04-11T20:59:42.358Z,10.00
2019-04-11T21:02:12.622Z,9.20
2019-04-11T21:04:43.346Z,13.63
2019-04-11T21:07:14.150Z,9.17
2019-04-11T21:09:45.159Z,8.50
2019-04-11T21:12:17.449Z,8.40
2019-04-11T21:14:48.222Z,13.07
2019-04-11T21:17:18.999Z,12.67
2019-04-11T21:19:50.990Z,9.97
2019-04-11T21:22:24.239Z,11.80
2019-04-11T21:24:54.477Z,9.67
2019-04-11T21:27:28.521Z,8.20
2019-04-11T21:29:59.758Z,8.70
2019-04-11T21:32:31.918Z,8.23
2019-04-11T21:35:02.961Z,9.73
2019-04-11T21:37:36.568Z,10.20
2019-04-11T21:40:06.718Z,9.33
2019-04-11T21:42:37.454Z,10.37
2019-04-11T21:45:08.069Z,9.07
2019-04-11T21:47:38.776Z,9.67
2019-04-11T21:50:10.245Z,11.53
2019-04-11T21:52:43.323Z,7.73
2019-04-11T21:55:15.968Z,8.73
2019-04-11T21:57:48.305Z,10.60
2019-04-11T22:00:24.894Z,9.83
2019-04-11T22:02:55.760Z,11.07
2019-04-11T22:05:28.890Z,10.43
2019-04-11T22:08:00.952Z,12.30
2019-04-11T22:10:31.137Z,7.27
2019-04-11T22:13:01.834Z,9.47
2019-04-11T22:15:32.479Z,14.07
2019-04-11T22:18:03.176Z,8.43
2019-04-11T22:20:33.883Z,7.47
2019-04-11T22:23:04.609Z,9.10
2019-04-11T22:25:35.245Z,9.80
2019-04-11T22:28:05.895Z,10.00
2019-04-11T22:30:36.808Z,9.50
2019-04-11T22:33:24.831Z,8.03
2019-04-11T22:35:57.012Z,9.93
2019-04-11T22:38:30.523Z,9.50
2019-04-11T22:41:01.767Z,8.83
2019-04-11T22:43:31.944Z,10.87
2019-04-11T22:46:02.641Z,8.80
2019-04-11T22:48:33.318Z,9.17
2019-04-11T22:51:03.983Z,7.90
2019-04-11T22:53:34.709Z,8.47
2019-04-11T22:56:05.405Z,11.20
2019-04-11T22:58:36.175Z,13.93
2019-04-11T23:01:06.878Z,8.17
2019-04-11T23:03:42.105Z,9.63
2019-04-11T23:06:14.917Z,8.27
2019-04-11T23:08:48.611Z,7.33
2019-04-11T23:11:17.475Z,10.00
2019-04-11T23:13:48.202Z,9.27
2019-04-11T23:16:18.928Z,6.97
2019-04-11T23:18:49.685Z,8.13
2019-04-11T23:21:20.411Z,9.30
2019-04-11T23:23:51.167Z,8.97
2019-04-11T23:26:21.893Z,10.30
2019-04-11T23:28:52.639Z,11.87
2019-04-11T23:31:23.339Z,11.37
2019-04-11T23:33:54.102Z,10.17
2019-04-11T23:36:24.828Z,8.30
2019-04-11T23:38:55.584Z,9.93
2019-04-11T23:41:26.231Z,9.43
2019-04-11T23:43:56.967Z,8.43
2019-04-11T23:46:27.703Z,7.90
2019-04-11T23:48:58.468Z,9.87
2019-04-11T23:51:29.216Z,8.13
2019-04-11T23:53:59.930Z,9.70
2019-04-11T23:56:31.305Z,10.50
2019-04-11T23:59:02.969Z,7.63
